sensor_id;sensor_type;location;lat;lon;timestamp;temperature;humidity
23475;DHT22;11910;52.086;21.066;2023-09-07T00:01:49;15.30;99.90
23475;DHT22;11910;52.086;21.066;2023-09-07T00:04:18;15.40;99.90
23475;DHT22;11910;52.086;21.066;2023-09-07T00:06:44;15.40;99.90
23475;DHT22;11910;52.086;21.066;2023-09-07T00:09:09;15.60;99.90
23475;DHT22;11910;52.086;21.066;2023-09-07T00:11:37;15.40;99.90
23475;DHT22;11910;52.086;21.066;2023-09-07T00:14:03;15.30;99.90
23475;DHT22;11910;52.086;21.066;2023-09-07T00:16:31;15.40;99.90
23475;DHT22;11910;52.086;21.066;2023-09-07T00:18:59;15.20;99.90
23475;DHT22;11910;52.086;21.066;2023-09-07T00:21:25;15.30;99.90
23475;DHT22;11910;52.086;21.066;2023-09-07T00:23:50;15.30;99.90
23475;DHT22;11910;52.086;21.066;2023-09-07T00:26:16;15.20;99.90
23475;DHT22;11910;52.086;21.066;2023-09-07T00:28:41;15.10;99.90
23475;DHT22;11910;52.086;21.066;2023-09-07T00:31:07;15.10;99.90
23475;DHT22;11910;52.086;21.066;2023-09-07T00:33:32;15.00;99.90
23475;DHT22;11910;52.086;21.066;2023-09-07T00:35:58;15.00;99.90
23475;DHT22;11910;52.086;21.066;2023-09-07T00:38:24;15.00;99.90
23475;DHT22;11910;52.086;21.066;2023-09-07T00:40:49;14.90;99.90
23475;DHT22;11910;52.086;21.066;2023-09-07T00:43:15;14.90;99.90
23475;DHT22;11910;52.086;21.066;2023-09-07T00:45:40;14.90;99.90
23475;DHT22;11910;52.086;21.066;2023-09-07T00:48:06;14.80;99.90
23475;DHT22;11910;52.086;21.066;2023-09-07T00:50:32;14.80;99.90
23475;DHT22;11910;52.086;21.066;2023-09-07T00:52:59;14.80;99.90
23475;DHT22;11910;52.086;21.066;2023-09-07T00:55:27;14.70;99.90
23475;DHT22;11910;52.086;21.066;2023-09-07T00:57:53;14.70;99.90
23475;DHT22;11910;52.086;21.066;2023-09-07T01:00:18;14.60;99.90
23475;DHT22;11910;52.086;21.066;2023-09-07T01:02:44;14.60;99.90
23475;DHT22;11910;52.086;21.066;2023-09-07T01:05:10;14.60;99.90
23475;DHT22;11910;52.086;21.066;2023-09-07T01:07:58;14.50;99.90
23475;DHT22;11910;52.086;21.066;2023-09-07T01:10:25;14.60;99.90
23475;DHT22;11910;52.086;21.066;2023-09-07T01:12:51;14.50;99.90
23475;DHT22;11910;52.086;21.066;2023-09-07T01:15:17;14.50;99.90
23475;DHT22;11910;52.086;21.066;2023-09-07T01:17:43;14.50;99.90
23475;DHT22;11910;52.086;21.066;2023-09-07T01:20:09;14.50;99.90
23475;DHT22;11910;52.086;21.066;2023-09-07T01:22:38;14.50;99.90
23475;DHT22;11910;52.086;21.066;2023-09-07T01:25:05;14.40;99.90
23475;DHT22;11910;52.086;21.066;2023-09-07T01:27:33;14.40;99.90
23475;DHT22;11910;52.086;21.066;2023-09-07T01:29:59;14.40;99.90
23475;DHT22;11910;52.086;21.066;2023-09-07T01:32:24;14.40;99.90
23475;DHT22;11910;52.086;21.066;2023-09-07T01:34:54;14.40;99.90
23475;DHT22;11910;52.086;21.066;2023-09-07T01:37:21;14.40;99.90
23475;DHT22;11910;52.086;21.066;2023-09-07T01:39:46;14.40;99.90
23475;DHT22;11910;52.086;21.066;2023-09-07T01:42:13;14.40;99.90
23475;DHT22;11910;52.086;21.066;2023-09-07T01:44:39;14.40;99.90
23475;DHT22;11910;52.086;21.066;2023-09-07T01:47:05;14.40;99.90
23475;DHT22;11910;52.086;21.066;2023-09-07T01:49:30;14.30;99.90
23475;DHT22;11910;52.086;21.066;2023-09-07T01:51:56;14.30;99.90
23475;DHT22;11910;52.086;21.066;2023-09-07T01:54:21;14.30;99.90
23475;DHT22;11910;52.086;21.066;2023-09-07T01:56:47;14.30;99.90
23475;DHT22;11910;52.086;21.066;2023-09-07T01:59:13;14.30;99.90
23475;DHT22;11910;52.086;21.066;2023-09-07T02:01:38;14.20;99.90
23475;DHT22;11910;52.086;21.066;2023-09-07T02:04:04;14.20;99.90
23475;DHT22;11910;52.086;21.066;2023-09-07T02:06:30;14.20;99.90
23475;DHT22;11910;52.086;21.066;2023-09-07T02:08:56;14.20;99.90
23475;DHT22;11910;52.086;21.066;2023-09-07T02:11:21;14.20;99.90
23475;DHT22;11910;52.086;21.066;2023-09-07T02:13:48;14.10;99.90
23475;DHT22;11910;52.086;21.066;2023-09-07T02:16:14;14.10;99.90
23475;DHT22;11910;52.086;21.066;2023-09-07T02:18:39;14.10;99.90
23475;DHT22;11910;52.086;21.066;2023-09-07T02:21:09;14.10;99.90
23475;DHT22;11910;52.086;21.066;2023-09-07T02:23:35;14.10;99.90
23475;DHT22;11910;52.086;21.066;2023-09-07T02:26:02;14.10;99.90
23475;DHT22;11910;52.086;21.066;2023-09-07T02:28:28;14.10;99.90
23475;DHT22;11910;52.086;21.066;2023-09-07T02:30:54;14.00;99.90
23475;DHT22;11910;52.086;21.066;2023-09-07T02:33:20;14.00;99.90
23475;DHT22;11910;52.086;21.066;2023-09-07T02:35:48;14.00;99.90
23475;DHT22;11910;52.086;21.066;2023-09-07T02:38:14;14.00;99.90
23475;DHT22;11910;52.086;21.066;2023-09-07T02:40:41;14.00;99.90
23475;DHT22;11910;52.086;21.066;2023-09-07T02:43:07;14.10;99.90
23475;DHT22;11910;52.086;21.066;2023-09-07T02:45:33;14.10;99.90
23475;DHT22;11910;52.086;21.066;2023-09-07T02:47:58;14.10;99.90
23475;DHT22;11910;52.086;21.066;2023-09-07T02:50:24;14.10;99.90
23475;DHT22;11910;52.086;21.066;2023-09-07T02:52:50;14.20;99.90
23475;DHT22;11910;52.086;21.066;2023-09-07T02:55:15;14.20;99.90
23475;DHT22;11910;52.086;21.066;2023-09-07T02:57:41;14.20;99.90
23475;DHT22;11910;52.086;21.066;2023-09-07T03:00:07;14.20;99.90
23475;DHT22;11910;52.086;21.066;2023-09-07T03:02:36;14.10;99.90
23475;DHT22;11910;52.086;21.066;2023-09-07T03:05:02;14.10;99.90
23475;DHT22;11910;52.086;21.066;2023-09-07T03:07:33;14.10;99.90
23475;DHT22;11910;52.086;21.066;2023-09-07T03:09:59;14.10;99.90
23475;DHT22;11910;52.086;21.066;2023-09-07T03:12:26;14.00;99.90
23475;DHT22;11910;52.086;21.066;2023-09-07T03:14:52;14.10;99.90
23475;DHT22;11910;52.086;21.066;2023-09-07T03:17:18;14.00;99.90
23475;DHT22;11910;52.086;21.066;2023-09-07T03:19:46;14.00;99.90
23475;DHT22;11910;52.086;21.066;2023-09-07T03:22:12;14.00;99.90
23475;DHT22;11910;52.086;21.066;2023-09-07T03:24:37;13.90;99.90
23475;DHT22;11910;52.086;21.066;2023-09-07T03:27:03;14.00;99.90
23475;DHT22;11910;52.086;21.066;2023-09-07T03:29:30;13.90;99.90
23475;DHT22;11910;52.086;21.066;2023-09-07T03:31:55;13.90;99.90
23475;DHT22;11910;52.086;21.066;2023-09-07T03:36:47;13.80;99.90
23475;DHT22;11910;52.086;21.066;2023-09-07T03:39:12;13.80;99.90
23475;DHT22;11910;52.086;21.066;2023-09-07T03:41:40;13.80;99.90
23475;DHT22;11910;52.086;21.066;2023-09-07T03:44:05;13.80;99.90
23475;DHT22;11910;52.086;21.066;2023-09-07T03:46:31;13.80;99.90
23475;DHT22;11910;52.086;21.066;2023-09-07T03:48:57;13.80;99.90
23475;DHT22;11910;52.086;21.066;2023-09-07T03:51:22;13.70;99.90
23475;DHT22;11910;52.086;21.066;2023-09-07T03:53:48;13.70;99.90
23475;DHT22;11910;52.086;21.066;2023-09-07T03:56:14;13.70;99.90
23475;DHT22;11910;52.086;21.066;2023-09-07T03:58:39;13.70;99.90
23475;DHT22;11910;52.086;21.066;2023-09-07T04:01:05;13.60;99.90
23475;DHT22;11910;52.086;21.066;2023-09-07T04:03:31;13.70;99.90
23475;DHT22;11910;52.086;21.066;2023-09-07T04:05:57;13.60;99.90
23475;DHT22;11910;52.086;21.066;2023-09-07T04:08:22;13.60;99.90
23475;DHT22;11910;52.086;21.066;2023-09-07T04:10:48;13.60;99.90
23475;DHT22;11910;52.086;21.066;2023-09-07T04:13:14;13.60;99.90
23475;DHT22;11910;52.086;21.066;2023-09-07T04:15:44;13.60;99.90
23475;DHT22;11910;52.086;21.066;2023-09-07T04:18:10;13.60;99.90
23475;DHT22;11910;52.086;21.066;2023-09-07T04:20:38;13.60;99.90
23475;DHT22;11910;52.086;21.066;2023-09-07T04:23:04;13.60;99.90
23475;DHT22;11910;52.086;21.066;2023-09-07T04:25:30;13.60;99.90
23475;DHT22;11910;52.086;21.066;2023-09-07T04:27:55;13.60;99.90
23475;DHT22;11910;52.086;21.066;2023-09-07T04:30:22;13.60;99.90
23475;DHT22;11910;52.086;21.066;2023-09-07T04:32:48;13.60;99.90
23475;DHT22;11910;52.086;21.066;2023-09-07T04:35:13;13.70;99.90
23475;DHT22;11910;52.086;21.066;2023-09-07T04:37:42;13.70;99.90
23475;DHT22;11910;52.086;21.066;2023-09-07T04:40:09;13.70;99.90
23475;DHT22;11910;52.086;21.066;2023-09-07T04:42:34;13.70;99.90
23475;DHT22;11910;52.086;21.066;2023-09-07T04:45:00;13.80;99.90
23475;DHT22;11910;52.086;21.066;2023-09-07T04:47:26;13.80;99.90
23475;DHT22;11910;52.086;21.066;2023-09-07T04:49:51;13.90;99.90
23475;DHT22;11910;52.086;21.066;2023-09-07T04:52:17;13.90;99.90
23475;DHT22;11910;52.086;21.066;2023-09-07T04:54:44;14.00;99.90
23475;DHT22;11910;52.086;21.066;2023-09-07T04:57:10;14.00;99.90
23475;DHT22;11910;52.086;21.066;2023-09-07T04:59:35;14.10;99.90
23475;DHT22;11910;52.086;21.066;2023-09-07T05:02:01;14.10;99.90
23475;DHT22;11910;52.086;21.066;2023-09-07T05:04:27;14.20;99.90
23475;DHT22;11910;52.086;21.066;2023-09-07T05:06:54;14.30;99.90
23475;DHT22;11910;52.086;21.066;2023-09-07T05:09:19;14.40;99.90
23475;DHT22;11910;52.086;21.066;2023-09-07T05:11:45;14.50;99.90
23475;DHT22;11910;52.086;21.066;2023-09-07T05:14:11;14.60;99.90
23475;DHT22;11910;52.086;21.066;2023-09-07T05:16:37;14.80;99.90
23475;DHT22;11910;52.086;21.066;2023-09-07T05:19:02;14.90;99.90
23475;DHT22;11910;52.086;21.066;2023-09-07T05:21:28;14.90;99.90
23475;DHT22;11910;52.086;21.066;2023-09-07T05:23:54;15.00;99.90
23475;DHT22;11910;52.086;21.066;2023-09-07T05:26:23;15.10;99.90
23475;DHT22;11910;52.086;21.066;2023-09-07T05:28:49;15.20;99.90
23475;DHT22;11910;52.086;21.066;2023-09-07T05:31:15;15.30;99.90
23475;DHT22;11910;52.086;21.066;2023-09-07T05:33:41;15.50;99.90
23475;DHT22;11910;52.086;21.066;2023-09-07T05:36:06;15.60;99.90
23475;DHT22;11910;52.086;21.066;2023-09-07T05:38:32;15.70;99.90
23475;DHT22;11910;52.086;21.066;2023-09-07T05:40:58;15.90;99.90
23475;DHT22;11910;52.086;21.066;2023-09-07T05:43:23;16.00;99.90
23475;DHT22;11910;52.086;21.066;2023-09-07T05:45:49;16.10;99.90
23475;DHT22;11910;52.086;21.066;2023-09-07T05:48:15;16.20;99.90
23475;DHT22;11910;52.086;21.066;2023-09-07T05:50:44;16.30;99.90
23475;DHT22;11910;52.086;21.066;2023-09-07T05:53:10;16.40;99.90
23475;DHT22;11910;52.086;21.066;2023-09-07T05:55:36;16.50;99.90
23475;DHT22;11910;52.086;21.066;2023-09-07T05:58:05;16.50;99.90
23475;DHT22;11910;52.086;21.066;2023-09-07T06:00:31;16.70;99.90
23475;DHT22;11910;52.086;21.066;2023-09-07T06:02:56;16.80;99.90
23475;DHT22;11910;52.086;21.066;2023-09-07T06:05:22;16.80;99.90
23475;DHT22;11910;52.086;21.066;2023-09-07T06:07:48;16.90;99.90
23475;DHT22;11910;52.086;21.066;2023-09-07T06:10:14;17.00;99.90
23475;DHT22;11910;52.086;21.066;2023-09-07T06:12:39;17.00;99.90
23475;DHT22;11910;52.086;21.066;2023-09-07T06:15:05;17.00;99.90
23475;DHT22;11910;52.086;21.066;2023-09-07T06:17:34;17.00;99.90
23475;DHT22;11910;52.086;21.066;2023-09-07T06:19:59;17.00;99.90
23475;DHT22;11910;52.086;21.066;2023-09-07T06:22:25;17.00;99.90
23475;DHT22;11910;52.086;21.066;2023-09-07T06:24:50;17.10;99.90
23475;DHT22;11910;52.086;21.066;2023-09-07T06:27:16;17.20;99.90
23475;DHT22;11910;52.086;21.066;2023-09-07T06:29:42;17.20;99.90
23475;DHT22;11910;52.086;21.066;2023-09-07T06:32:07;17.30;99.90
23475;DHT22;11910;52.086;21.066;2023-09-07T06:34:33;17.50;99.90
23475;DHT22;11910;52.086;21.066;2023-09-07T06:36:58;17.60;99.90
23475;DHT22;11910;52.086;21.066;2023-09-07T06:39:24;17.80;99.90
23475;DHT22;11910;52.086;21.066;2023-09-07T06:41:50;17.80;99.90
23475;DHT22;11910;52.086;21.066;2023-09-07T06:44:16;18.00;99.90
23475;DHT22;11910;52.086;21.066;2023-09-07T06:46:41;18.10;99.90
23475;DHT22;11910;52.086;21.066;2023-09-07T06:49:07;18.20;99.90
23475;DHT22;11910;52.086;21.066;2023-09-07T06:51:33;18.30;99.90
23475;DHT22;11910;52.086;21.066;2023-09-07T06:53:59;18.50;99.90
23475;DHT22;11910;52.086;21.066;2023-09-07T06:56:25;18.60;99.90
23475;DHT22;11910;52.086;21.066;2023-09-07T06:58:52;18.70;99.90
23475;DHT22;11910;52.086;21.066;2023-09-07T07:01:18;18.90;99.90
23475;DHT22;11910;52.086;21.066;2023-09-07T07:03:43;19.00;99.90
23475;DHT22;11910;52.086;21.066;2023-09-07T07:06:09;19.10;99.90
23475;DHT22;11910;52.086;21.066;2023-09-07T07:08:35;19.20;99.90
23475;DHT22;11910;52.086;21.066;2023-09-07T07:11:01;19.30;99.90
23475;DHT22;11910;52.086;21.066;2023-09-07T07:13:26;19.40;99.90
23475;DHT22;11910;52.086;21.066;2023-09-07T07:15:52;19.50;99.90
23475;DHT22;11910;52.086;21.066;2023-09-07T07:18:18;19.60;99.90
23475;DHT22;11910;52.086;21.066;2023-09-07T07:20:44;19.70;99.90
23475;DHT22;11910;52.086;21.066;2023-09-07T07:23:10;19.80;99.90
23475;DHT22;11910;52.086;21.066;2023-09-07T07:25:36;19.90;99.90
23475;DHT22;11910;52.086;21.066;2023-09-07T07:28:06;20.00;99.90
23475;DHT22;11910;52.086;21.066;2023-09-07T07:30:36;20.10;99.90
23475;DHT22;11910;52.086;21.066;2023-09-07T07:33:03;20.20;99.90
23475;DHT22;11910;52.086;21.066;2023-09-07T07:35:30;20.30;99.90
23475;DHT22;11910;52.086;21.066;2023-09-07T07:37:56;20.40;99.90
23475;DHT22;11910;52.086;21.066;2023-09-07T07:40:21;20.50;99.90
23475;DHT22;11910;52.086;21.066;2023-09-07T07:42:48;20.60;99.90
23475;DHT22;11910;52.086;21.066;2023-09-07T07:45:23;20.70;99.90
23475;DHT22;11910;52.086;21.066;2023-09-07T07:47:49;20.80;99.90
23475;DHT22;11910;52.086;21.066;2023-09-07T07:50:15;20.90;99.90
23475;DHT22;11910;52.086;21.066;2023-09-07T07:52:41;21.00;99.90
23475;DHT22;11910;52.086;21.066;2023-09-07T07:55:08;21.10;99.90
23475;DHT22;11910;52.086;21.066;2023-09-07T07:57:33;21.30;99.90
23475;DHT22;11910;52.086;21.066;2023-09-07T07:59:59;21.40;99.90
23475;DHT22;11910;52.086;21.066;2023-09-07T08:02:25;21.50;99.90
23475;DHT22;11910;52.086;21.066;2023-09-07T08:04:50;21.60;99.90
23475;DHT22;11910;52.086;21.066;2023-09-07T08:07:16;21.80;99.90
23475;DHT22;11910;52.086;21.066;2023-09-07T08:09:42;21.90;99.90
23475;DHT22;11910;52.086;21.066;2023-09-07T08:12:07;22.00;99.90
23475;DHT22;11910;52.086;21.066;2023-09-07T08:14:33;22.10;99.90
23475;DHT22;11910;52.086;21.066;2023-09-07T08:16:59;22.20;99.90
23475;DHT22;11910;52.086;21.066;2023-09-07T08:19:25;22.30;99.90
23475;DHT22;11910;52.086;21.066;2023-09-07T08:21:53;22.50;99.90
23475;DHT22;11910;52.086;21.066;2023-09-07T08:24:18;22.50;99.90
23475;DHT22;11910;52.086;21.066;2023-09-07T08:26:44;22.70;99.90
23475;DHT22;11910;52.086;21.066;2023-09-07T08:29:10;22.80;99.90
23475;DHT22;11910;52.086;21.066;2023-09-07T08:31:36;22.90;99.90
23475;DHT22;11910;52.086;21.066;2023-09-07T08:34:05;23.10;99.90
23475;DHT22;11910;52.086;21.066;2023-09-07T08:36:32;23.20;99.90
23475;DHT22;11910;52.086;21.066;2023-09-07T08:39:05;23.30;99.90
23475;DHT22;11910;52.086;21.066;2023-09-07T08:41:40;23.40;99.90
23475;DHT22;11910;52.086;21.066;2023-09-07T08:44:10;23.50;99.90
23475;DHT22;11910;52.086;21.066;2023-09-07T08:46:40;23.70;99.90
23475;DHT22;11910;52.086;21.066;2023-09-07T08:49:06;23.90;99.90
23475;DHT22;11910;52.086;21.066;2023-09-07T08:51:32;24.00;99.90
23475;DHT22;11910;52.086;21.066;2023-09-07T08:53:58;24.20;99.90
23475;DHT22;11910;52.086;21.066;2023-09-07T08:56:24;24.30;99.90
23475;DHT22;11910;52.086;21.066;2023-09-07T08:58:50;24.40;99.90
23475;DHT22;11910;52.086;21.066;2023-09-07T09:01:16;24.50;99.90
23475;DHT22;11910;52.086;21.066;2023-09-07T09:03:42;24.70;99.90
23475;DHT22;11910;52.086;21.066;2023-09-07T09:06:08;24.90;99.90
23475;DHT22;11910;52.086;21.066;2023-09-07T09:11:16;25.80;99.90
23475;DHT22;11910;52.086;21.066;2023-09-07T09:13:43;26.70;99.30
23475;DHT22;11910;52.086;21.066;2023-09-07T09:16:10;27.10;98.40
23475;DHT22;11910;52.086;21.066;2023-09-07T09:18:35;28.00;96.60
23475;DHT22;11910;52.086;21.066;2023-09-07T09:21:01;28.60;96.80
23475;DHT22;11910;52.086;21.066;2023-09-07T09:23:40;29.40;94.90
23475;DHT22;11910;52.086;21.066;2023-09-07T09:26:06;30.60;93.80
23475;DHT22;11910;52.086;21.066;2023-09-07T09:28:33;31.50;91.10
23475;DHT22;11910;52.086;21.066;2023-09-07T09:30:59;32.10;90.20
23475;DHT22;11910;52.086;21.066;2023-09-07T09:33:26;32.60;87.80
23475;DHT22;11910;52.086;21.066;2023-09-07T09:35:53;33.00;84.60
23475;DHT22;11910;52.086;21.066;2023-09-07T09:38:23;33.40;85.10
23475;DHT22;11910;52.086;21.066;2023-09-07T09:40:52;34.10;79.50
23475;DHT22;11910;52.086;21.066;2023-09-07T09:43:20;34.40;78.20
23475;DHT22;11910;52.086;21.066;2023-09-07T09:45:46;34.90;78.60
23475;DHT22;11910;52.086;21.066;2023-09-07T09:48:14;35.40;75.10
23475;DHT22;11910;52.086;21.066;2023-09-07T09:50:44;35.80;73.40
23475;DHT22;11910;52.086;21.066;2023-09-07T09:53:12;36.10;72.20
23475;DHT22;11910;52.086;21.066;2023-09-07T09:55:41;36.50;72.30
23475;DHT22;11910;52.086;21.066;2023-09-07T09:58:09;36.60;71.50
23475;DHT22;11910;52.086;21.066;2023-09-07T10:00:38;36.80;69.30
23475;DHT22;11910;52.086;21.066;2023-09-07T10:03:08;36.90;70.10
23475;DHT22;11910;52.086;21.066;2023-09-07T10:12:27;38.00;65.40
23475;DHT22;11910;52.086;21.066;2023-09-07T10:15:00;38.40;62.90
23475;DHT22;11910;52.086;21.066;2023-09-07T10:17:26;38.60;63.50
23475;DHT22;11910;52.086;21.066;2023-09-07T10:20:02;39.00;65.80
23475;DHT22;11910;52.086;21.066;2023-09-07T10:22:33;39.30;65.60
23475;DHT22;11910;52.086;21.066;2023-09-07T10:25:01;39.40;63.40
23475;DHT22;11910;52.086;21.066;2023-09-07T10:27:36;39.40;63.60
23475;DHT22;11910;52.086;21.066;2023-09-07T10:30:09;39.10;63.80
23475;DHT22;11910;52.086;21.066;2023-09-07T10:32:39;38.80;63.00
23475;DHT22;11910;52.086;21.066;2023-09-07T10:35:19;38.70;63.10
23475;DHT22;11910;52.086;21.066;2023-09-07T10:37:50;38.30;64.30
23475;DHT22;11910;52.086;21.066;2023-09-07T10:43:12;38.40;61.90
23475;DHT22;11910;52.086;21.066;2023-09-07T10:45:38;38.50;62.50
23475;DHT22;11910;52.086;21.066;2023-09-07T10:48:11;38.30;62.10
23475;DHT22;11910;52.086;21.066;2023-09-07T10:50:56;37.90;62.90
23475;DHT22;11910;52.086;21.066;2023-09-07T10:53:29;37.40;61.70
23475;DHT22;11910;52.086;21.066;2023-09-07T10:55:59;35.70;65.60
23475;DHT22;11910;52.086;21.066;2023-09-07T10:58:45;34.10;67.70
23475;DHT22;11910;52.086;21.066;2023-09-07T11:01:11;32.90;70.20
23475;DHT22;11910;52.086;21.066;2023-09-07T11:03:37;31.90;71.50
23475;DHT22;11910;52.086;21.066;2023-09-07T11:06:13;31.20;73.00
23475;DHT22;11910;52.086;21.066;2023-09-07T11:08:40;30.70;75.30
23475;DHT22;11910;52.086;21.066;2023-09-07T11:11:08;30.30;76.90
23475;DHT22;11910;52.086;21.066;2023-09-07T11:13:34;30.00;77.80
23475;DHT22;11910;52.086;21.066;2023-09-07T11:16:00;29.60;77.50
23475;DHT22;11910;52.086;21.066;2023-09-07T11:18:25;29.40;76.90
23475;DHT22;11910;52.086;21.066;2023-09-07T11:21:15;29.20;77.00
23475;DHT22;11910;52.086;21.066;2023-09-07T11:23:41;28.80;78.30
23475;DHT22;11910;52.086;21.066;2023-09-07T11:26:09;28.70;77.10
23475;DHT22;11910;52.086;21.066;2023-09-07T11:28:34;28.60;78.30
23475;DHT22;11910;52.086;21.066;2023-09-07T11:31:00;28.50;78.70
23475;DHT22;11910;52.086;21.066;2023-09-07T11:33:26;28.50;81.40
23475;DHT22;11910;52.086;21.066;2023-09-07T11:35:53;28.50;78.80
23475;DHT22;11910;52.086;21.066;2023-09-07T11:38:21;28.40;77.40
23475;DHT22;11910;52.086;21.066;2023-09-07T11:41:35;28.40;79.90
23475;DHT22;11910;52.086;21.066;2023-09-07T11:47:33;28.50;76.40
23475;DHT22;11910;52.086;21.066;2023-09-07T11:50:03;28.50;76.70
23475;DHT22;11910;52.086;21.066;2023-09-07T11:52:29;28.50;80.30
23475;DHT22;11910;52.086;21.066;2023-09-07T11:54:57;28.40;78.00
23475;DHT22;11910;52.086;21.066;2023-09-07T11:57:22;28.20;76.20
23475;DHT22;11910;52.086;21.066;2023-09-07T11:59:48;28.20;78.80
23475;DHT22;11910;52.086;21.066;2023-09-07T12:02:14;28.10;79.80
23475;DHT22;11910;52.086;21.066;2023-09-07T12:04:42;27.90;77.80
23475;DHT22;11910;52.086;21.066;2023-09-07T12:07:07;27.80;79.80
23475;DHT22;11910;52.086;21.066;2023-09-07T12:09:33;27.80;82.40
23475;DHT22;11910;52.086;21.066;2023-09-07T12:12:19;27.70;79.00
23475;DHT22;11910;52.086;21.066;2023-09-07T12:15:05;27.70;80.70
23475;DHT22;11910;52.086;21.066;2023-09-07T12:17:31;27.70;80.80
23475;DHT22;11910;52.086;21.066;2023-09-07T12:19:57;27.70;81.40
23475;DHT22;11910;52.086;21.066;2023-09-07T12:22:22;27.70;78.80
23475;DHT22;11910;52.086;21.066;2023-09-07T12:24:50;27.70;79.80
23475;DHT22;11910;52.086;21.066;2023-09-07T12:27:16;27.60;76.20
23475;DHT22;11910;52.086;21.066;2023-09-07T12:29:42;27.60;75.70
23475;DHT22;11910;52.086;21.066;2023-09-07T12:32:08;27.60;76.60
23475;DHT22;11910;52.086;21.066;2023-09-07T12:34:37;27.60;77.90
23475;DHT22;11910;52.086;21.066;2023-09-07T12:37:04;27.60;80.70
23475;DHT22;11910;52.086;21.066;2023-09-07T12:39:30;27.60;80.40
23475;DHT22;11910;52.086;21.066;2023-09-07T12:41:59;27.70;83.30
23475;DHT22;11910;52.086;21.066;2023-09-07T12:44:24;27.70;83.50
23475;DHT22;11910;52.086;21.066;2023-09-07T12:46:50;27.60;83.10
23475;DHT22;11910;52.086;21.066;2023-09-07T12:49:15;27.60;81.40
23475;DHT22;11910;52.086;21.066;2023-09-07T12:51:42;27.60;83.50
23475;DHT22;11910;52.086;21.066;2023-09-07T12:54:07;27.60;81.90
23475;DHT22;11910;52.086;21.066;2023-09-07T12:56:33;27.50;81.70
23475;DHT22;11910;52.086;21.066;2023-09-07T12:58:59;27.40;82.50
23475;DHT22;11910;52.086;21.066;2023-09-07T13:01:26;27.20;83.70
23475;DHT22;11910;52.086;21.066;2023-09-07T13:03:51;27.10;80.00
23475;DHT22;11910;52.086;21.066;2023-09-07T13:06:17;26.90;84.00
23475;DHT22;11910;52.086;21.066;2023-09-07T13:08:43;26.80;83.90
23475;DHT22;11910;52.086;21.066;2023-09-07T13:11:11;26.60;85.50
23475;DHT22;11910;52.086;21.066;2023-09-07T13:13:40;26.40;81.40
23475;DHT22;11910;52.086;21.066;2023-09-07T13:16:08;26.30;83.60
23475;DHT22;11910;52.086;21.066;2023-09-07T13:18:33;26.30;83.00
23475;DHT22;11910;52.086;21.066;2023-09-07T13:20:59;26.40;82.90
23475;DHT22;11910;52.086;21.066;2023-09-07T13:23:28;26.40;81.50
23475;DHT22;11910;52.086;21.066;2023-09-07T13:25:57;26.50;83.10
23475;DHT22;11910;52.086;21.066;2023-09-07T13:28:23;26.50;79.90
23475;DHT22;11910;52.086;21.066;2023-09-07T13:30:50;26.50;81.60
23475;DHT22;11910;52.086;21.066;2023-09-07T13:33:15;26.50;79.00
23475;DHT22;11910;52.086;21.066;2023-09-07T13:35:41;26.60;79.50
23475;DHT22;11910;52.086;21.066;2023-09-07T13:38:07;26.60;80.60
23475;DHT22;11910;52.086;21.066;2023-09-07T13:40:32;26.70;81.70
23475;DHT22;11910;52.086;21.066;2023-09-07T13:43:00;26.70;83.00
23475;DHT22;11910;52.086;21.066;2023-09-07T13:45:28;26.70;83.60
23475;DHT22;11910;52.086;21.066;2023-09-07T13:47:55;26.80;83.20
23475;DHT22;11910;52.086;21.066;2023-09-07T13:50:21;26.70;82.20
23475;DHT22;11910;52.086;21.066;2023-09-07T13:52:47;26.80;82.50
23475;DHT22;11910;52.086;21.066;2023-09-07T13:55:13;26.80;82.50
23475;DHT22;11910;52.086;21.066;2023-09-07T13:57:41;26.80;82.60
23475;DHT22;11910;52.086;21.066;2023-09-07T14:00:07;26.80;83.90
23475;DHT22;11910;52.086;21.066;2023-09-07T14:02:33;26.80;82.90
23475;DHT22;11910;52.086;21.066;2023-09-07T14:04:59;26.80;82.50
23475;DHT22;11910;52.086;21.066;2023-09-07T14:07:29;26.80;83.70
23475;DHT22;11910;52.086;21.066;2023-09-07T14:10:02;26.80;83.30
23475;DHT22;11910;52.086;21.066;2023-09-07T14:12:33;26.70;82.50
23475;DHT22;11910;52.086;21.066;2023-09-07T14:14:59;26.70;83.60
23475;DHT22;11910;52.086;21.066;2023-09-07T14:17:51;26.70;81.00
23475;DHT22;11910;52.086;21.066;2023-09-07T14:20:19;26.60;82.20
23475;DHT22;11910;52.086;21.066;2023-09-07T14:23:10;26.60;84.20
23475;DHT22;11910;52.086;21.066;2023-09-07T14:25:41;26.50;80.00
23475;DHT22;11910;52.086;21.066;2023-09-07T14:28:15;26.50;82.10
23475;DHT22;11910;52.086;21.066;2023-09-07T14:30:43;26.50;82.30
23475;DHT22;11910;52.086;21.066;2023-09-07T14:33:11;26.40;82.20
23475;DHT22;11910;52.086;21.066;2023-09-07T14:35:57;26.40;81.90
23475;DHT22;11910;52.086;21.066;2023-09-07T14:38:29;26.30;81.70
23475;DHT22;11910;52.086;21.066;2023-09-07T14:40:55;26.20;82.80
23475;DHT22;11910;52.086;21.066;2023-09-07T14:43:22;26.20;83.10
23475;DHT22;11910;52.086;21.066;2023-09-07T14:45:48;26.10;82.10
23475;DHT22;11910;52.086;21.066;2023-09-07T14:48:13;26.10;83.50
23475;DHT22;11910;52.086;21.066;2023-09-07T14:50:39;26.00;84.20
23475;DHT22;11910;52.086;21.066;2023-09-07T14:53:04;25.90;84.00
23475;DHT22;11910;52.086;21.066;2023-09-07T14:55:31;25.80;85.20
23475;DHT22;11910;52.086;21.066;2023-09-07T14:57:57;25.80;84.10
23475;DHT22;11910;52.086;21.066;2023-09-07T15:00:23;25.70;83.50
23475;DHT22;11910;52.086;21.066;2023-09-07T15:02:50;25.70;83.60
23475;DHT22;11910;52.086;21.066;2023-09-07T15:05:15;25.60;84.40
23475;DHT22;11910;52.086;21.066;2023-09-07T15:07:41;25.50;84.80
23475;DHT22;11910;52.086;21.066;2023-09-07T15:10:07;25.40;84.80
23475;DHT22;11910;52.086;21.066;2023-09-07T15:12:33;25.40;86.20
23475;DHT22;11910;52.086;21.066;2023-09-07T15:15:02;25.30;86.60
23475;DHT22;11910;52.086;21.066;2023-09-07T15:17:28;25.30;87.40
23475;DHT22;11910;52.086;21.066;2023-09-07T15:19:56;25.20;85.70
23475;DHT22;11910;52.086;21.066;2023-09-07T15:22:30;25.10;87.80
23475;DHT22;11910;52.086;21.066;2023-09-07T15:25:02;25.10;90.50
23475;DHT22;11910;52.086;21.066;2023-09-07T15:27:30;25.00;90.70
23475;DHT22;11910;52.086;21.066;2023-09-07T15:29:58;24.80;90.50
23475;DHT22;11910;52.086;21.066;2023-09-07T15:32:24;24.80;91.00
23475;DHT22;11910;52.086;21.066;2023-09-07T15:34:50;24.60;91.30